createdAt,value
2019-02-09T00:00:57.193Z,2.00
2019-02-09T00:02:18.227Z,1.80
2019-02-09T00:02:57.213Z,1.70
2019-02-09T00:03:57.447Z,1.90
2019-02-09T00:04:57.243Z,1.80
2019-02-09T00:05:57.258Z,1.60
2019-02-09T00:06:57.275Z,1.70
2019-02-09T00:08:18.308Z,2.00
2019-02-09T00:08:57.299Z,2.00
2019-02-09T00:09:57.320Z,1.60
2019-02-09T00:10:57.367Z,1.70
2019-02-09T00:11:57.337Z,1.90
2019-02-09T00:12:57.351Z,1.80
2019-02-09T00:14:18.395Z,1.90
2019-02-09T00:14:57.381Z,1.70
2019-02-09T00:15:57.398Z,1.90
2019-02-09T00:16:57.405Z,1.90
2019-02-09T00:17:57.429Z,2.00
2019-02-09T00:18:57.440Z,2.10
2019-02-09T00:20:18.533Z,2.10
2019-02-09T00:20:57.490Z,1.80
2019-02-09T00:21:57.476Z,2.00
2019-02-09T00:22:57.493Z,1.60
2019-02-09T00:23:57.613Z,2.00
2019-02-09T00:24:57.519Z,1.90
2019-02-09T00:26:18.547Z,1.80
2019-02-09T00:26:57.549Z,1.70
2019-02-09T00:27:57.566Z,2.00
2019-02-09T00:28:57.572Z,2.30
2019-02-09T00:29:57.587Z,2.00
2019-02-09T00:30:57.602Z,1.90
2019-02-09T00:32:18.629Z,1.80
2019-02-09T00:32:57.628Z,1.90
2019-02-09T00:33:57.653Z,1.90
2019-02-09T00:34:57.662Z,2.20
2019-02-09T00:35:57.668Z,2.20
2019-02-09T00:36:57.700Z,1.80
2019-02-09T00:38:18.708Z,1.80
2019-02-09T00:38:57.713Z,2.00
2019-02-09T00:39:57.728Z,1.80
2019-02-09T00:40:57.735Z,1.90
2019-02-09T00:41:57.758Z,2.00
2019-02-09T00:42:57.773Z,1.70
2019-02-09T00:44:18.793Z,1.80
2019-02-09T00:44:57.790Z,1.90
2019-02-09T00:45:57.808Z,1.90
2019-02-09T00:46:57.825Z,1.70
2019-02-09T00:47:57.838Z,1.60
2019-02-09T00:48:57.845Z,1.90
2019-02-09T00:50:18.879Z,1.90
2019-02-09T00:50:57.873Z,1.90
2019-02-09T00:51:57.885Z,1.50
2019-02-09T00:52:57.911Z,1.70
2019-02-09T00:53:57.919Z,1.70
2019-02-09T00:54:57.930Z,1.90
2019-02-09T00:56:18.963Z,1.90
2019-02-09T00:56:57.973Z,1.60
2019-02-09T00:57:57.969Z,1.80
2019-02-09T00:58:57.983Z,1.70
2019-02-09T00:59:57.997Z,1.60
2019-02-09T01:00:58.017Z,1.80
2019-02-09T01:02:19.045Z,1.90
2019-02-09T01:02:58.036Z,2.20
2019-02-09T01:03:58.060Z,1.90
2019-02-09T01:04:58.067Z,2.00
2019-02-09T01:05:58.079Z,1.70
2019-02-09T01:06:58.097Z,1.90
2019-02-09T01:08:19.131Z,1.70
2019-02-09T01:08:58.120Z,1.50
2019-02-09T01:09:58.135Z,1.90
2019-02-09T01:10:58.150Z,1.90
2019-02-09T01:11:58.164Z,1.70
2019-02-09T01:12:58.173Z,1.90
2019-02-09T01:14:19.212Z,1.50
2019-02-09T01:14:58.199Z,1.80
2019-02-09T01:15:58.215Z,1.80
2019-02-09T01:16:58.229Z,1.50
2019-02-09T01:17:58.250Z,1.70
2019-02-09T01:18:58.263Z,1.50
2019-02-09T01:20:19.282Z,1.60
2019-02-09T01:20:58.284Z,1.40
2019-02-09T01:21:58.304Z,1.50
2019-02-09T01:22:58.321Z,1.30
2019-02-09T01:23:58.328Z,1.40
2019-02-09T01:24:58.343Z,1.60
2019-02-09T01:26:19.368Z,1.70
2019-02-09T01:26:58.403Z,1.60
2019-02-09T01:27:58.378Z,1.40
2019-02-09T01:28:58.402Z,1.60
2019-02-09T01:30:02.374Z,1.40
2019-02-09T01:30:58.426Z,1.60
2019-02-09T01:32:19.447Z,1.50
2019-02-09T01:32:58.446Z,1.70
2019-02-09T01:33:58.460Z,1.40
2019-02-09T01:34:58.490Z,1.70
2019-02-09T01:35:58.491Z,1.30
2019-02-09T01:36:58.507Z,1.50
2019-02-09T01:38:19.539Z,1.40
2019-02-09T01:38:58.538Z,1.50
2019-02-09T01:39:58.546Z,1.50
2019-02-09T01:40:59.505Z,1.40
2019-02-09T01:41:58.570Z,1.60
2019-02-09T01:42:58.580Z,1.40
2019-02-09T01:44:19.614Z,1.70
2019-02-09T01:44:58.621Z,1.70
2019-02-09T01:45:58.627Z,1.40
2019-02-09T01:46:58.636Z,1.40
2019-02-09T01:47:58.656Z,1.60
2019-02-09T01:48:58.682Z,1.70
2019-02-09T01:50:19.703Z,1.30
2019-02-09T01:50:58.697Z,1.30
2019-02-09T01:51:58.707Z,1.60
2019-02-09T01:52:58.726Z,1.60
2019-02-09T01:53:58.742Z,1.70
2019-02-09T01:54:58.757Z,1.30
2019-02-09T01:56:19.774Z,1.40
2019-02-09T01:56:58.775Z,1.60
2019-02-09T01:57:58.802Z,1.40
2019-02-09T01:58:58.818Z,1.20
2019-02-09T01:59:58.835Z,1.20
2019-02-09T02:00:58.842Z,1.40
2019-02-09T02:02:19.863Z,1.40
2019-02-09T02:02:58.875Z,1.20
2019-02-09T02:03:58.881Z,1.60
2019-02-09T02:04:58.890Z,1.30
2019-02-09T02:05:58.912Z,1.30
2019-02-09T02:06:58.929Z,1.30
2019-02-09T02:08:19.941Z,1.30
2019-02-09T02:08:58.943Z,1.20
2019-02-09T02:09:58.959Z,1.10
2019-02-09T02:10:58.970Z,1.00
2019-02-09T02:11:58.981Z,1.00
2019-02-09T02:12:58.996Z,1.20
2019-02-09T02:14:20.021Z,1.10
2019-02-09T02:14:59.027Z,1.20
2019-02-09T02:15:59.091Z,1.40
2019-02-09T02:16:59.053Z,1.30
2019-02-09T02:17:59.078Z,1.30
2019-02-09T02:18:59.076Z,1.10
2019-02-09T02:20:20.130Z,1.30
2019-02-09T02:20:59.106Z,1.30
2019-02-09T02:21:59.177Z,1.40
2019-02-09T02:22:59.153Z,1.30
2019-02-09T02:23:59.148Z,1.70
2019-02-09T02:24:59.172Z,1.40
2019-02-09T02:26:20.194Z,1.60
2019-02-09T02:26:59.187Z,1.30
2019-02-09T02:27:59.214Z,1.30
2019-02-09T02:28:59.221Z,1.40
2019-02-09T02:29:59.236Z,1.60
2019-02-09T02:30:59.270Z,1.30
2019-02-09T02:32:20.284Z,1.40
2019-02-09T02:32:59.275Z,1.30
2019-02-09T02:33:59.283Z,1.30
2019-02-09T02:34:59.292Z,1.60
2019-02-09T02:35:59.323Z,1.80
2019-02-09T02:36:59.335Z,1.40
2019-02-09T02:38:20.350Z,1.20
2019-02-09T02:38:59.348Z,1.30
2019-02-09T02:39:59.363Z,1.40
2019-02-09T02:40:59.378Z,1.60
2019-02-09T02:41:59.388Z,1.40
2019-02-09T02:42:59.400Z,1.40
2019-02-09T02:44:20.444Z,1.40
2019-02-09T02:44:59.425Z,1.50
2019-02-09T02:45:59.444Z,1.50
2019-02-09T02:46:59.469Z,1.60
2019-02-09T02:47:59.480Z,1.50
2019-02-09T02:48:59.490Z,1.60
2019-02-09T02:50:20.611Z,1.50
2019-02-09T02:50:59.524Z,1.40
2019-02-09T02:51:59.526Z,1.60
2019-02-09T02:52:59.567Z,1.50
2019-02-09T02:53:59.561Z,1.40
2019-02-09T02:54:59.563Z,1.90
2019-02-09T02:56:20.596Z,1.70
2019-02-09T02:56:59.594Z,1.40
2019-02-09T02:57:59.623Z,1.80
2019-02-09T02:58:59.638Z,1.80
2019-02-09T02:59:59.652Z,1.50
2019-02-09T03:00:59.642Z,1.60
2019-02-09T03:02:20.672Z,1.80
2019-02-09T03:02:59.687Z,1.70
2019-02-09T03:03:59.698Z,2.10
2019-02-09T03:04:59.717Z,2.00
2019-02-09T03:05:59.724Z,1.80
2019-02-09T03:06:59.739Z,1.60
2019-02-09T03:08:20.763Z,1.90
2019-02-09T03:37:49.714Z,1.10
2019-02-09T03:38:49.687Z,2.00
2019-02-09T03:40:41.617Z,2.40
2019-02-09T03:41:41.611Z,2.20
2019-02-09T03:43:33.545Z,2.30
2019-02-09T03:44:33.538Z,2.60
2019-02-09T03:46:25.444Z,2.00
2019-02-09T03:47:25.465Z,2.10
2019-02-09T03:49:17.376Z,2.00
2019-02-09T03:50:17.357Z,2.50
2019-02-09T03:52:09.267Z,2.00
2019-02-09T03:53:09.269Z,1.70
2019-02-09T03:55:01.198Z,2.00
2019-02-09T03:56:01.181Z,2.00
2019-02-09T03:57:53.110Z,1.80
2019-02-09T03:58:53.096Z,2.10
2019-02-09T04:00:45.008Z,1.90
2019-02-09T04:01:45.018Z,1.80
2019-02-09T04:03:36.974Z,2.00
2019-02-09T04:04:36.943Z,2.20
2019-02-09T04:06:28.862Z,2.20
2019-02-09T04:07:28.878Z,2.10
2019-02-09T04:09:20.800Z,2.00
2019-02-09T04:10:20.807Z,1.80
2019-02-09T04:12:12.705Z,2.20
2019-02-09T04:13:12.709Z,1.70
2019-02-09T04:15:04.638Z,1.80
2019-02-09T04:16:04.638Z,2.30
2019-02-09T04:17:56.627Z,2.00
2019-02-09T04:18:56.542Z,2.30
2019-02-09T04:20:48.529Z,1.90
2019-02-09T04:21:48.487Z,2.00
2019-02-09T04:22:48.502Z,2.30
2019-02-09T04:23:48.513Z,2.00
2019-02-09T04:24:48.523Z,2.20
2019-02-09T04:25:48.538Z,2.10
2019-02-09T04:26:48.553Z,2.60
2019-02-09T04:27:48.564Z,2.30
2019-02-09T04:28:48.577Z,2.20
2019-02-09T04:29:48.594Z,1.80
2019-02-09T04:30:48.610Z,1.70
2019-02-09T04:31:48.624Z,2.20
2019-02-09T04:32:48.637Z,2.00
2019-02-09T04:33:48.649Z,2.00
2019-02-09T04:34:48.655Z,2.10
2019-02-09T04:35:48.674Z,2.10
2019-02-09T04:36:48.692Z,1.90
2019-02-09T04:37:48.706Z,2.00
2019-02-09T04:38:48.712Z,2.00
2019-02-09T04:39:48.745Z,2.10
2019-02-09T04:40:48.741Z,2.20
2019-02-09T04:41:48.755Z,2.30
2019-02-09T04:42:48.766Z,2.20
2019-02-09T04:43:48.777Z,2.00
2019-02-09T04:44:48.790Z,2.50
2019-02-09T04:45:48.802Z,2.40
2019-02-09T04:46:48.817Z,2.10
2019-02-09T04:47:48.824Z,1.90
2019-02-09T04:48:48.845Z,2.20
2019-02-09T04:49:48.861Z,2.10
2019-02-09T04:50:48.874Z,2.10
2019-02-09T04:51:48.882Z,2.10
2019-02-09T04:52:48.903Z,2.30
2019-02-09T04:53:48.905Z,2.20
2019-02-09T04:54:48.929Z,1.90
2019-02-09T04:55:48.931Z,2.30
2019-02-09T04:56:48.960Z,2.40
2019-02-09T04:57:48.972Z,2.10
2019-02-09T04:58:48.974Z,2.20
2019-02-09T04:59:48.990Z,2.20
2019-02-09T05:00:49.002Z,2.20
2019-02-09T05:01:49.015Z,2.30
2019-02-09T05:02:49.026Z,2.10
2019-02-09T05:03:49.035Z,2.30
2019-02-09T05:04:49.058Z,2.30
2019-02-09T05:05:49.068Z,1.60
2019-02-09T05:06:49.078Z,2.30
2019-02-09T05:07:49.090Z,2.10
2019-02-09T05:08:49.104Z,2.20
2019-02-09T05:09:49.122Z,2.20
2019-02-09T05:10:49.136Z,2.00
2019-02-09T05:11:49.147Z,2.20
2019-02-09T05:12:49.161Z,2.30
2019-02-09T05:13:49.177Z,2.50
2019-02-09T05:14:49.184Z,2.10
2019-02-09T05:15:49.193Z,2.60
2019-02-09T05:16:49.212Z,2.40
2019-02-09T05:17:49.224Z,2.10
2019-02-09T05:18:49.240Z,2.10
2019-02-09T05:19:49.247Z,2.70
2019-02-09T05:20:49.263Z,2.00
2019-02-09T05:21:49.281Z,2.60
2019-02-09T05:22:49.307Z,2.20
2019-02-09T05:23:49.303Z,2.10
2019-02-09T05:24:49.321Z,2.70
2019-02-09T05:25:49.332Z,2.20
2019-02-09T05:26:49.344Z,3.00
2019-02-09T05:27:49.357Z,2.40
2019-02-09T05:28:49.380Z,2.30
2019-02-09T05:29:49.383Z,2.50
2019-02-09T05:30:49.407Z,2.50
2019-02-09T05:31:49.408Z,2.20
2019-02-09T05:32:49.435Z,2.30
2019-02-09T05:33:49.442Z,2.10
2019-02-09T05:34:49.449Z,2.20
2019-02-09T05:35:49.477Z,2.60
2019-02-09T05:36:49.475Z,2.40
2019-02-09T05:37:49.498Z,2.40
2019-02-09T05:38:49.507Z,2.80
2019-02-09T05:39:49.520Z,2.10
2019-02-09T05:40:49.533Z,2.40
2019-02-09T05:41:49.552Z,2.30
2019-02-09T05:42:49.558Z,2.50
2019-02-09T05:43:49.576Z,2.20
2019-02-09T05:44:49.585Z,2.40
2019-02-09T05:45:49.610Z,2.10
2019-02-09T05:46:49.616Z,2.70
2019-02-09T05:47:49.628Z,2.00
2019-02-09T05:48:49.645Z,2.10
2019-02-09T05:49:49.655Z,2.90
2019-02-09T05:50:49.665Z,2.00
2019-02-09T05:51:49.680Z,2.10
2019-02-09T05:52:49.701Z,2.30
2019-02-09T05:53:49.710Z,2.10
2019-02-09T05:54:49.715Z,2.50
2019-02-09T05:55:49.737Z,2.20
2019-02-09T05:56:49.749Z,2.10
2019-02-09T05:57:49.755Z,2.10
2019-02-09T05:58:49.783Z,2.20
2019-02-09T05:59:49.789Z,2.30
2019-02-09T06:00:49.801Z,2.40
2019-02-09T06:01:49.813Z,2.40
2019-02-09T06:02:49.829Z,2.40
2019-02-09T06:03:49.839Z,2.70
2019-02-09T06:04:49.849Z,2.20
2019-02-09T06:05:49.869Z,2.20
2019-02-09T06:06:49.875Z,2.20
2019-02-09T06:07:49.894Z,2.50
2019-02-09T06:08:49.903Z,2.30
2019-02-09T06:09:49.915Z,2.50
2019-02-09T06:10:49.935Z,2.80
2019-02-09T06:11:49.950Z,2.40
2019-02-09T06:12:49.959Z,2.50
2019-02-09T06:13:49.980Z,2.60
2019-02-09T06:14:49.986Z,2.60
2019-02-09T06:15:49.998Z,2.50
2019-02-09T06:16:50.024Z,2.30
2019-02-09T06:17:50.029Z,2.70
2019-02-09T06:18:50.043Z,2.30
2019-02-09T06:19:50.054Z,2.40
2019-02-09T06:20:50.069Z,2.50
2019-02-09T06:21:50.079Z,2.60
2019-02-09T06:22:50.086Z,2.80
2019-02-09T06:23:50.110Z,2.30
2019-02-09T06:24:50.118Z,1.80
2019-02-09T06:25:50.132Z,2.10
2019-02-09T06:26:50.143Z,1.90
2019-02-09T06:27:50.167Z,2.20
2019-02-09T06:28:50.171Z,1.80
2019-02-09T06:29:50.191Z,1.80
2019-02-09T06:30:50.199Z,1.60
2019-02-09T06:31:51.874Z,1.70
2019-02-09T06:32:50.224Z,1.60
2019-02-09T06:33:50.232Z,1.60
2019-02-09T06:34:50.260Z,1.50
2019-02-09T06:35:50.260Z,1.30
2019-02-09T06:36:50.290Z,1.40
2019-02-09T06:37:50.291Z,1.60
2019-02-09T06:38:50.303Z,1.30
2019-02-09T06:39:50.317Z,1.80
2019-02-09T06:40:50.331Z,1.50
2019-02-09T06:41:50.350Z,1.70
2019-02-09T06:42:50.352Z,1.80
2019-02-09T06:43:50.376Z,1.80
2019-02-09T06:44:50.386Z,2.30
2019-02-09T06:45:50.398Z,2.00
2019-02-09T06:46:50.408Z,2.00
2019-02-09T06:47:50.414Z,1.90
2019-02-09T06:48:50.439Z,2.10
2019-02-09T06:49:50.446Z,2.10
2019-02-09T06:50:50.462Z,2.90
2019-02-09T06:51:50.471Z,2.60
2019-02-09T06:52:50.484Z,2.70
2019-02-09T06:53:50.497Z,2.90
2019-02-09T06:54:50.515Z,2.30
2019-02-09T06:55:50.526Z,3.00
2019-02-09T06:56:50.538Z,3.00
2019-02-09T06:57:50.550Z,2.70
2019-02-09T06:58:50.577Z,3.00
2019-02-09T06:59:50.584Z,3.00
2019-02-09T07:00:50.595Z,2.80
2019-02-09T07:01:50.604Z,2.80
2019-02-09T07:02:50.615Z,2.50
2019-02-09T07:03:50.628Z,2.80
2019-02-09T07:04:50.643Z,2.60
2019-02-09T07:05:50.664Z,2.40
2019-02-09T07:06:50.676Z,2.30
2019-02-09T07:07:50.684Z,2.20
2019-02-09T07:08:50.695Z,2.50
2019-02-09T07:09:50.711Z,2.00
2019-02-09T07:10:50.722Z,2.20
2019-02-09T07:11:50.739Z,2.10
2019-02-09T07:12:50.747Z,2.10
2019-02-09T07:13:50.764Z,2.00
2019-02-09T07:14:50.776Z,1.90
2019-02-09T07:15:50.787Z,2.10
2019-02-09T07:16:50.811Z,1.90
2019-02-09T07:17:50.818Z,2.20
2019-02-09T07:18:50.825Z,2.20
2019-02-09T07:19:50.843Z,2.40
2019-02-09T07:20:50.856Z,2.60
2019-02-09T07:21:50.868Z,2.80
2019-02-09T07:22:50.882Z,2.90
2019-02-09T07:23:50.887Z,2.90
2019-02-09T07:24:50.901Z,2.90
2019-02-09T07:25:50.922Z,2.80
2019-02-09T07:26:50.939Z,2.40
2019-02-09T07:27:50.943Z,2.90
2019-02-09T07:28:50.958Z,2.70
2019-02-09T07:29:50.968Z,2.90
2019-02-09T07:30:50.992Z,2.80
2019-02-09T07:31:56.355Z,2.70
2019-02-09T07:32:51.004Z,2.60
2019-02-09T07:33:51.020Z,2.60
2019-02-09T07:34:51.047Z,3.10
2019-02-09T07:35:51.045Z,2.90
2019-02-09T07:36:51.058Z,2.40
2019-02-09T07:37:51.079Z,3.00
2019-02-09T07:38:51.108Z,2.70
2019-02-09T07:39:51.095Z,2.50
2019-02-09T07:40:51.108Z,2.60
2019-02-09T07:41:51.123Z,2.90
2019-02-09T07:42:51.135Z,2.70
2019-02-09T07:43:51.147Z,2.60
2019-02-09T07:44:51.164Z,2.60
2019-02-09T07:45:51.192Z,3.00
2019-02-09T07:46:51.183Z,3.00
2019-02-09T07:47:51.210Z,2.90
2019-02-09T07:48:51.217Z,2.90
2019-02-09T07:49:51.226Z,2.60
2019-02-09T07:50:51.253Z,2.40
2019-02-09T07:51:51.253Z,3.00
2019-02-09T07:52:51.267Z,2.30
2019-02-09T07:53:51.276Z,3.10
2019-02-09T07:54:51.296Z,2.80
2019-02-09T07:55:51.305Z,3.00
2019-02-09T07:56:51.315Z,3.20
2019-02-09T07:57:51.333Z,2.70
2019-02-09T07:58:51.342Z,3.80
2019-02-09T07:59:51.356Z,2.90
2019-02-09T08:00:51.372Z,2.70
2019-02-09T08:01:51.390Z,3.20
2019-02-09T08:02:51.395Z,2.80
2019-02-09T08:03:51.419Z,3.10
2019-02-09T08:04:51.421Z,2.60
2019-02-09T08:05:51.430Z,2.90
2019-02-09T08:06:51.452Z,3.20
2019-02-09T08:07:51.457Z,3.30
2019-02-09T08:08:51.475Z,3.20
2019-02-09T08:09:51.495Z,3.20
2019-02-09T08:10:51.500Z,3.00
2019-02-09T08:11:51.514Z,3.40
2019-02-09T08:12:51.534Z,2.90
2019-02-09T08:13:51.534Z,2.90
2019-02-09T08:14:51.547Z,3.00
2019-02-09T08:15:51.565Z,3.50
2019-02-09T08:16:51.579Z,3.10
2019-02-09T08:17:51.587Z,3.40
2019-02-09T08:18:51.602Z,3.40
2019-02-09T08:19:51.623Z,2.80
2019-02-09T08:20:51.638Z,3.10
2019-02-09T08:21:51.692Z,3.20
2019-02-09T08:22:51.696Z,3.50
2019-02-09T08:23:51.677Z,3.30
2019-02-09T08:24:51.680Z,2.90
2019-02-09T08:25:51.692Z,3.10
2019-02-09T08:26:51.705Z,3.00
2019-02-09T08:27:51.724Z,2.90
2019-02-09T08:28:51.747Z,2.80
2019-02-09T08:29:51.749Z,3.00
2019-02-09T08:30:51.779Z,3.10
2019-02-09T08:31:51.775Z,3.50
2019-02-09T08:32:51.790Z,3.30
2019-02-09T08:33:51.801Z,2.90
2019-02-09T08:34:51.814Z,3.10
2019-02-09T08:35:51.825Z,2.80
2019-02-09T08:36:51.840Z,3.20
2019-02-09T08:37:51.855Z,2.90
2019-02-09T08:38:51.868Z,3.00
2019-02-09T08:39:51.899Z,3.00
2019-02-09T08:40:51.893Z,3.10
2019-02-09T08:41:51.907Z,3.20
2019-02-09T08:42:51.926Z,3.10
2019-02-09T08:43:51.934Z,3.00
2019-02-09T08:44:51.954Z,3.10
2019-02-09T08:45:51.960Z,2.70
2019-02-09T08:46:51.976Z,2.90
2019-02-09T08:47:51.986Z,3.20
2019-02-09T08:48:52.028Z,3.50
2019-02-09T08:49:52.026Z,2.90
2019-02-09T08:50:52.048Z,3.30
2019-02-09T08:51:52.043Z,3.60
2019-02-09T08:52:52.055Z,3.60
2019-02-09T08:53:52.070Z,2.80
2019-02-09T08:54:52.084Z,3.40
2019-02-09T08:55:52.098Z,3.40
2019-02-09T08:56:52.111Z,2.80
2019-02-09T08:57:52.128Z,2.90
2019-02-09T08:58:52.175Z,3.10
2019-02-09T08:59:52.166Z,3.30
2019-02-09T09:00:52.170Z,3.00
2019-02-09T09:01:52.208Z,3.10
2019-02-09T09:02:52.194Z,3.10
2019-02-09T09:03:52.208Z,3.20
2019-02-09T09:04:52.259Z,3.50
2019-02-09T09:05:52.239Z,3.60
2019-02-09T09:06:52.258Z,3.00
2019-02-09T09:07:52.278Z,3.40
2019-02-09T09:08:52.282Z,3.10
2019-02-09T09:09:52.289Z,3.10
2019-02-09T09:10:52.307Z,3.20
2019-02-09T09:11:52.321Z,3.10
2019-02-09T09:12:52.331Z,3.10
2019-02-09T09:13:52.363Z,3.30
2019-02-09T09:14:52.375Z,3.30
2019-02-09T09:15:52.380Z,3.00
2019-02-09T09:16:52.391Z,3.50
2019-02-09T09:17:52.409Z,3.20
2019-02-09T09:18:52.427Z,3.30
2019-02-09T09:19:52.431Z,3.40
2019-02-09T09:20:52.458Z,3.30
2019-02-09T09:21:52.470Z,3.90
2019-02-09T09:22:52.476Z,3.10
2019-02-09T09:23:52.494Z,3.50
2019-02-09T09:24:52.502Z,4.00
2019-02-09T09:25:52.526Z,3.80
2019-02-09T09:26:52.532Z,3.20
2019-02-09T09:27:52.549Z,2.90
2019-02-09T09:28:52.565Z,3.10
2019-02-09T09:29:52.574Z,3.10
2019-02-09T09:30:52.595Z,3.80
2019-02-09T09:31:52.602Z,3.50
2019-02-09T09:32:52.633Z,3.10
2019-02-09T09:33:52.643Z,3.60
2019-02-09T09:34:52.661Z,3.30
2019-02-09T09:35:52.663Z,3.20
2019-02-09T09:36:52.680Z,3.10
2019-02-09T09:37:52.696Z,3.10
2019-02-09T09:38:52.704Z,3.40
2019-02-09T09:39:52.730Z,3.20
2019-02-09T09:40:52.732Z,3.50
2019-02-09T09:41:52.748Z,3.90
2019-02-09T09:42:52.760Z,3.30
2019-02-09T09:43:52.780Z,4.00
2019-02-09T09:44:52.792Z,3.60
2019-02-09T09:45:52.811Z,3.50
2019-02-09T09:46:52.821Z,3.70
2019-02-09T09:47:52.834Z,3.30
2019-02-09T09:48:52.857Z,3.60
2019-02-09T09:49:52.868Z,3.70
2019-02-09T09:50:52.882Z,3.70
2019-02-09T09:51:52.894Z,3.30
2019-02-09T09:52:52.914Z,3.70
2019-02-09T09:53:52.927Z,3.30
2019-02-09T09:54:52.945Z,3.60
2019-02-09T09:55:52.961Z,3.30
2019-02-09T09:56:52.969Z,3.80
2019-02-09T09:57:52.984Z,4.00
2019-02-09T09:58:52.998Z,3.60
2019-02-09T09:59:53.011Z,4.00
2019-02-09T10:00:53.027Z,3.30
2019-02-09T10:01:53.044Z,3.50
2019-02-09T10:02:53.058Z,3.50
2019-02-09T10:03:53.098Z,3.60
2019-02-09T10:04:53.109Z,3.60
2019-02-09T10:05:53.107Z,3.70
2019-02-09T10:06:53.116Z,3.30
2019-02-09T10:07:53.138Z,3.30
2019-02-09T10:08:53.161Z,3.50
2019-02-09T10:09:53.940Z,3.60
2019-02-09T10:10:53.180Z,3.10
2019-02-09T10:11:53.204Z,3.70
2019-02-09T10:12:53.208Z,3.40
2019-02-09T10:13:53.230Z,3.40
2019-02-09T10:14:53.250Z,3.60
2019-02-09T10:15:53.255Z,3.40
2019-02-09T10:16:53.267Z,3.40
2019-02-09T10:17:53.283Z,3.80
2019-02-09T10:18:53.297Z,3.50
2019-02-09T10:19:53.330Z,3.40
2019-02-09T10:20:53.345Z,3.50
2019-02-09T10:21:53.347Z,3.70
2019-02-09T10:22:53.355Z,3.20
2019-02-09T10:23:53.376Z,3.10
2019-02-09T10:24:53.387Z,3.60
2019-02-09T10:25:53.405Z,3.70
2019-02-09T10:26:53.425Z,3.20
2019-02-09T10:27:53.430Z,3.60
2019-02-09T10:28:53.447Z,3.30
2019-02-09T10:29:53.468Z,3.20
2019-02-09T10:30:53.473Z,3.20
2019-02-09T10:31:53.506Z,3.80
2019-02-09T10:32:53.510Z,3.60
2019-02-09T10:33:53.518Z,3.50
2019-02-09T10:34:53.540Z,4.10
2019-02-09T10:35:53.555Z,4.00
2019-02-09T10:36:53.566Z,4.00
2019-02-09T10:37:53.588Z,4.10
2019-02-09T10:38:53.598Z,3.60
2019-02-09T10:39:53.608Z,3.40
2019-02-09T10:40:53.622Z,3.80
2019-02-09T10:41:53.640Z,3.30
2019-02-09T10:42:53.655Z,3.40
2019-02-09T10:43:53.672Z,3.20
2019-02-09T10:44:53.689Z,3.50
2019-02-09T10:45:53.702Z,3.40
2019-02-09T10:46:53.715Z,3.60
2019-02-09T10:47:53.730Z,3.50
2019-02-09T10:48:53.743Z,3.90
2019-02-09T10:49:53.757Z,3.80
2019-02-09T10:50:53.775Z,4.00
2019-02-09T10:51:53.789Z,3.70
2019-02-09T10:52:53.808Z,3.40
2019-02-09T10:53:53.818Z,3.90
2019-02-09T10:54:53.839Z,3.30
2019-02-09T10:55:53.852Z,3.40
2019-02-09T10:56:53.867Z,3.70
2019-02-09T10:57:53.879Z,3.60
2019-02-09T10:58:53.893Z,3.70
2019-02-09T10:59:53.907Z,3.10
2019-02-09T11:00:53.930Z,3.80
2019-02-09T11:01:53.944Z,4.00
2019-02-09T11:02:53.954Z,3.80
2019-02-09T11:03:53.973Z,3.70
2019-02-09T11:04:53.986Z,3.30
2019-02-09T11:05:54.000Z,3.80
2019-02-09T11:06:54.011Z,3.50
2019-02-09T11:07:54.032Z,4.10
2019-02-09T11:08:54.046Z,3.50
2019-02-09T11:09:54.067Z,3.90
2019-02-09T11:10:54.071Z,4.00
2019-02-09T11:11:54.083Z,3.50
2019-02-09T11:12:54.110Z,3.70
2019-02-09T11:13:54.120Z,3.90
2019-02-09T11:14:54.131Z,3.20
2019-02-09T11:15:54.150Z,3.30
2019-02-09T11:16:54.160Z,3.60
2019-02-09T11:17:54.177Z,3.80
2019-02-09T11:18:54.193Z,3.50
2019-02-09T11:19:54.206Z,4.00
2019-02-09T11:20:54.221Z,3.70
2019-02-09T11:21:54.233Z,3.90
2019-02-09T11:22:54.248Z,3.40
2019-02-09T11:23:54.268Z,3.40
2019-02-09T11:24:54.279Z,4.00
2019-02-09T11:25:54.305Z,3.60
2019-02-09T11:26:54.312Z,3.80
2019-02-09T11:27:54.343Z,3.30
2019-02-09T11:28:54.343Z,3.30
2019-02-09T11:29:54.363Z,3.20
2019-02-09T11:30:54.377Z,3.50
2019-02-09T11:31:54.391Z,4.00
2019-02-09T11:33:01.600Z,3.40
2019-02-09T11:33:54.423Z,3.70
2019-02-09T11:34:54.433Z,3.00
2019-02-09T11:35:54.458Z,3.30
2019-02-09T11:36:54.462Z,3.30
2019-02-09T11:37:54.481Z,3.60
2019-02-09T11:38:54.500Z,3.20
2019-02-09T11:39:54.507Z,3.30
2019-02-09T11:40:54.525Z,3.10
2019-02-09T11:41:54.537Z,3.00
2019-02-09T11:42:54.551Z,3.60
2019-02-09T11:43:54.562Z,3.30
2019-02-09T11:44:56.236Z,4.00
2019-02-09T11:45:54.603Z,3.40
2019-02-09T11:46:54.611Z,3.40
2019-02-09T11:47:54.622Z,3.40
2019-02-09T11:48:54.641Z,3.60
2019-02-09T11:49:54.653Z,3.60
2019-02-09T11:50:54.667Z,2.90
2019-02-09T11:51:54.703Z,3.30
2019-02-09T11:52:54.701Z,3.70
2019-02-09T11:53:54.716Z,3.40
2019-02-09T11:54:54.730Z,3.20
2019-02-09T11:55:54.748Z,3.50
2019-02-09T11:56:54.759Z,3.10
2019-02-09T11:57:54.773Z,3.20
2019-02-09T11:58:54.788Z,3.40
2019-02-09T11:59:54.810Z,3.20
2019-02-09T12:00:54.822Z,3.10
2019-02-09T12:01:54.837Z,3.90
2019-02-09T12:03:02.058Z,3.70
2019-02-09T12:03:54.876Z,3.40
2019-02-09T12:04:54.891Z,3.30
2019-02-09T12:05:54.898Z,3.60
2019-02-09T12:06:54.924Z,3.70
2019-02-09T12:07:54.937Z,3.40
2019-02-09T12:08:54.945Z,3.60
2019-02-09T12:09:54.964Z,3.40
2019-02-09T12:10:55.034Z,3.10
2019-02-09T12:11:54.993Z,3.50
2019-02-09T12:12:55.008Z,3.10
2019-02-09T12:13:55.565Z,3.40
2019-02-09T12:14:55.037Z,2.90
2019-02-09T12:15:55.072Z,3.10
2019-02-09T12:16:55.070Z,3.30
2019-02-09T12:17:55.086Z,3.50
2019-02-09T12:18:55.095Z,3.30
2019-02-09T12:19:55.115Z,3.60
2019-02-09T12:20:55.128Z,3.20
2019-02-09T12:21:55.140Z,3.70
2019-02-09T12:22:55.172Z,3.60
2019-02-09T12:23:55.182Z,4.60
2019-02-09T12:24:55.190Z,3.50
2019-02-09T12:25:55.206Z,3.20
2019-02-09T12:26:55.221Z,3.50
2019-02-09T12:27:55.234Z,3.60
2019-02-09T12:28:55.253Z,3.10
2019-02-09T12:29:56.618Z,3.40
2019-02-09T12:30:55.275Z,3.30
2019-02-09T12:31:55.291Z,3.10
2019-02-09T12:32:55.310Z,3.50
2019-02-09T12:33:55.325Z,3.60
2019-02-09T12:34:55.340Z,3.00
2019-02-09T12:35:55.356Z,3.40
2019-02-09T12:36:55.382Z,3.60
2019-02-09T12:37:55.384Z,3.60
2019-02-09T12:38:55.399Z,3.60
2019-02-09T12:39:55.415Z,3.40
2019-02-09T12:40:55.434Z,3.40
2019-02-09T12:41:55.477Z,3.20
2019-02-09T12:42:55.479Z,4.00
2019-02-09T12:43:55.478Z,3.50
2019-02-09T12:44:55.502Z,3.60
2019-02-09T12:45:55.507Z,3.80
2019-02-09T12:46:55.529Z,4.00
2019-02-09T12:47:55.537Z,3.60
2019-02-09T12:48:55.561Z,4.20
2019-02-09T12:49:55.568Z,4.00
2019-02-09T12:50:55.592Z,4.20
2019-02-09T12:51:55.600Z,4.10
2019-02-09T12:52:55.614Z,4.00
2019-02-09T12:53:55.640Z,3.60
2019-02-09T12:54:55.644Z,3.70
2019-02-09T12:55:55.663Z,3.10
2019-02-09T12:56:55.680Z,3.70
2019-02-09T12:57:55.690Z,3.80
2019-02-09T12:58:55.711Z,3.50
2019-02-09T12:59:55.718Z,3.30
2019-02-09T13:00:55.734Z,4.00
2019-02-09T13:01:55.763Z,3.80
2019-02-09T13:02:55.768Z,3.80
2019-02-09T13:03:55.780Z,3.50
2019-02-09T13:04:55.795Z,3.80
2019-02-09T13:05:55.814Z,3.50
2019-02-09T13:06:55.833Z,3.60
2019-02-09T13:07:55.844Z,3.10
2019-02-09T13:08:55.858Z,4.00
2019-02-09T13:09:55.869Z,3.90
2019-02-09T13:10:55.886Z,3.70
2019-02-09T13:11:55.905Z,3.80
2019-02-09T13:12:55.923Z,3.30
2019-02-09T13:13:55.938Z,3.40
2019-02-09T13:14:55.957Z,3.10
2019-02-09T13:15:55.965Z,3.30
2019-02-09T13:16:55.979Z,3.40
2019-02-09T13:17:55.996Z,3.50
2019-02-09T13:18:56.011Z,3.40
2019-02-09T13:19:56.027Z,3.20
2019-02-09T13:20:56.040Z,3.00
2019-02-09T13:21:56.061Z,3.30
2019-02-09T13:22:56.091Z,2.70
2019-02-09T13:23:56.089Z,2.90
2019-02-09T13:24:56.106Z,2.90
2019-02-09T13:25:56.130Z,2.90
2019-02-09T13:26:56.132Z,3.20
2019-02-09T13:27:56.143Z,2.40
2019-02-09T13:28:56.170Z,3.00
2019-02-09T13:29:56.176Z,3.10
2019-02-09T13:30:56.196Z,3.00
2019-02-09T13:31:56.209Z,3.00
2019-02-09T13:32:56.226Z,3.40
2019-02-09T13:33:56.236Z,2.80
2019-02-09T13:34:56.257Z,3.10
2019-02-09T13:35:56.271Z,3.00
2019-02-09T13:36:56.285Z,2.80
2019-02-09T13:37:56.302Z,2.70
2019-02-09T13:38:56.311Z,2.70
2019-02-09T13:39:56.327Z,2.90
2019-02-09T13:40:56.354Z,2.70
2019-02-09T13:41:56.361Z,2.70
2019-02-09T13:42:56.383Z,2.70
2019-02-09T13:43:56.394Z,2.70
2019-02-09T13:44:56.408Z,2.90
2019-02-09T13:45:56.427Z,2.60
2019-02-09T13:46:56.438Z,2.70
2019-02-09T13:47:56.456Z,2.90
2019-02-09T13:48:57.536Z,2.80
2019-02-09T13:49:56.483Z,3.20
2019-02-09T13:50:56.503Z,3.20
2019-02-09T13:51:56.513Z,3.10
2019-02-09T13:52:56.536Z,2.90
2019-02-09T13:53:56.545Z,3.20
2019-02-09T13:54:56.559Z,3.00
2019-02-09T13:55:56.577Z,2.80
2019-02-09T13:56:56.591Z,2.90
2019-02-09T13:57:56.609Z,2.60
2019-02-09T13:58:56.619Z,2.60
2019-02-09T13:59:56.634Z,2.40
2019-02-09T14:00:56.658Z,2.50